Time;durP1;ratioP1;P1;durP2;ratioP2;P2;SDS_P1;SDS_P2;PMS_P1;PMS_P2;Temp;Humidity;BMP_temperature;BMP_pressure;BME280_temperature;BME280_humidity;BME280_pressure;Samples;Min_cycle;Max_cycle;Signal;HPM_P1;HPM_P2
2022/09/17 00:01:58;;;;;;;;;2.67;1.67;;;;;18.54;66.19;100545.56;5077580;28;46206;-69
2022/09/17 00:04:24;;;;;;;;;4.67;4.00;;;;;18.60;66.08;100542.03;5077843;28;45415;-69
2022/09/17 00:06:49;;;;;;;;;5.00;4.33;;;;;18.57;65.43;100526.19;5077949;28;45435;-69
2022/09/17 00:09:15;;;;;;;;;2.33;2.33;;;;;18.48;65.91;100520.03;5077611;28;46679;-69
2022/09/17 00:11:42;;;;;;;;;3.67;2.67;;;;;18.48;65.88;100527.06;5077455;28;45298;-69
2022/09/17 00:14:13;;;;;;;;;3.67;3.67;;;;;18.36;65.87;100509.47;5077638;28;45530;-70
2022/09/17 00:16:41;;;;;;;;;3.00;2.67;;;;;18.40;66.37;100516.53;5077945;28;45293;-69
2022/09/17 00:19:11;;;;;;;;;3.67;3.67;;;;;18.48;66.88;100525.31;5077443;28;45461;-69
2022/09/17 00:21:37;;;;;;;;;1.67;1.00;;;;;18.53;67.03;100520.00;5077368;27;45507;-69
2022/09/17 00:24:05;;;;;;;;;3.67;2.67;;;;;18.59;67.08;100524.41;5077471;27;45677;-69
2022/09/17 00:26:32;;;;;;;;;1.67;1.67;;;;;18.61;67.26;100530.56;5077972;27;45477;-69
2022/09/17 00:28:59;;;;;;;;;3.00;1.67;;;;;18.56;68.56;100529.69;5077522;27;45310;-69
2022/09/17 00:31:27;;;;;;;;;2.33;2.33;;;;;18.55;67.72;100534.13;5075884;28;45514;-69
2022/09/17 00:33:53;;;;;;;;;3.00;3.00;;;;;18.51;67.59;100518.25;5077580;28;45493;-69
2022/09/17 00:36:19;;;;;;;;;2.67;2.67;;;;;18.53;67.44;100522.66;5077442;28;45222;-69
2022/09/17 00:38:52;;;;;;;;;3.33;2.33;;;;;18.45;67.02;100511.22;5077180;28;45520;-69
2022/09/17 00:41:19;;;;;;;;;0.00;0.00;;;;;18.51;67.66;100520.91;5077039;28;45321;-69
2022/09/17 00:43:52;;;;;;;;;2.33;2.00;;;;;18.51;67.60;100532.38;5077321;27;45640;-69
2022/09/17 00:46:36;;;;;;;;;2.00;2.00;;;;;18.51;67.67;100524.44;5077406;27;45307;-69
2022/09/17 00:49:11;;;;;;;;;2.67;2.67;;;;;18.43;67.51;100520.94;5077368;28;46626;-69
2022/09/17 00:51:45;;;;;;;;;3.00;3.00;;;;;18.39;68.37;100525.34;5076880;28;45410;-69
2022/09/17 00:54:11;;;;;;;;;3.00;3.00;;;;;18.25;68.60;100512.16;5077275;28;45487;-69
2022/09/17 00:56:40;;;;;;;;;4.00;3.33;;;;;18.35;65.98;100517.44;5077403;28;45433;-69
2022/09/17 00:59:07;;;;;;;;;4.33;3.00;;;;;18.26;65.28;100506.00;5076952;28;45592;-69
2022/09/17 01:01:33;;;;;;;;;3.00;3.00;;;;;18.23;64.70;100505.09;5077248;28;45230;-69
2022/09/17 01:03:58;;;;;;;;;4.00;3.00;;;;;18.21;64.72;100499.81;5077369;28;45559;-69
2022/09/17 01:06:38;;;;;;;;;3.00;3.00;;;;;18.24;62.04;100506.84;5077348;27;45515;-69
2022/09/17 01:09:25;;;;;;;;;4.33;3.33;;;;;18.22;64.15;100508.63;5077189;27;46325;-69
2022/09/17 01:12:13;;;;;;;;;2.67;2.67;;;;;18.15;64.65;100505.13;5076799;28;45172;-69
2022/09/17 01:14:59;;;;;;;;;4.00;4.00;;;;;18.11;63.06;100507.78;5080628;28;45334;-69
2022/09/17 01:17:42;;;;;;;;;3.33;2.33;;;;;18.06;60.29;100508.66;5080573;28;45480;-69
2022/09/17 01:20:31;;;;;;;;;2.00;2.00;;;;;17.89;61.27;100507.81;5080234;28;46269;-69
2022/09/17 01:23:10;;;;;;;;;4.33;2.33;;;;;17.82;61.65;100498.94;5080269;28;45248;-70
2022/09/17 01:25:55;;;;;;;;;5.00;4.00;;;;;17.76;62.58;100506.88;5080379;28;45239;-70
2022/09/17 01:28:42;;;;;;;;;2.67;2.67;;;;;17.80;64.51;100506.00;5080573;28;45523;-69
2022/09/17 01:31:56;;;;;;;;;4.00;4.00;;;;;17.81;64.97;100509.53;5079860;27;45861;-70
2022/09/17 01:34:48;;;;;;;;;4.33;3.00;;;;;17.69;68.21;100500.72;5075043;28;45218;-69
2022/09/17 01:37:33;;;;;;;;;5.33;4.00;;;;;17.68;68.56;100501.59;5079856;27;45487;-69
2022/09/17 01:40:10;;;;;;;;;3.00;3.00;;;;;17.74;67.10;100498.06;5080273;27;45537;-72
2022/09/17 01:42:50;;;;;;;;;3.00;3.00;;;;;17.59;67.82;100477.81;5080221;27;45413;-70
2022/09/17 01:45:28;;;;;;;;;3.33;3.33;;;;;17.76;61.98;100493.66;5079888;28;45841;-73
2022/09/17 01:48:02;;;;;;;;;3.33;3.33;;;;;17.64;59.37;100485.75;5080129;27;45450;-69
2022/09/17 01:50:35;;;;;;;;;5.00;5.00;;;;;17.48;59.77;100490.13;5079998;28;45529;-69
2022/09/17 01:53:04;;;;;;;;;5.00;3.00;;;;;17.34;60.17;100476.91;5078712;28;47186;-69
2022/09/17 01:55:36;;;;;;;;;4.33;4.00;;;;;17.32;60.51;100499.81;5079776;28;45426;-69
2022/09/17 01:58:13;;;;;;;;;4.00;3.00;;;;;17.21;61.87;100497.16;5080250;28;45456;-69
2022/09/17 02:00:44;;;;;;;;;4.00;4.00;;;;;17.18;63.18;100494.50;5079965;28;45325;-69
2022/09/17 02:03:36;;;;;;;;;4.00;4.00;;;;;17.15;63.66;100506.78;5079635;28;46252;-69
2022/09/17 02:06:04;;;;;;;;;3.00;3.00;;;;;17.18;64.41;100502.41;5079547;27;45255;-69
2022/09/17 02:08:46;;;;;;;;;4.33;3.67;;;;;17.21;65.14;100510.34;5079601;28;45555;-69
2022/09/17 02:11:14;;;;;;;;;3.67;3.00;;;;;17.19;64.74;100506.84;5078335;28;45554;-69
2022/09/17 02:13:57;;;;;;;;;3.00;2.33;;;;;17.08;65.39;100505.91;5079504;27;46584;-71
2022/09/17 02:16:29;;;;;;;;;4.33;4.00;;;;;17.01;64.31;100509.41;5079541;27;45429;-71
2022/09/17 02:19:17;;;;;;;;;6.00;4.67;;;;;16.97;63.45;100507.63;5079448;28;45435;-70
2022/09/17 02:21:52;;;;;;;;;5.00;4.33;;;;;16.93;62.88;100505.84;5079680;28;45556;-69
2022/09/17 02:24:46;;;;;;;;;7.00;6.00;;;;;16.78;64.06;100502.25;5078826;28;45404;-69
2022/09/17 02:27:19;;;;;;;;;5.67;4.33;;;;;16.73;64.43;100503.13;5070591;28;45519;-68
2022/09/17 02:29:45;;;;;;;;;5.00;5.00;;;;;16.70;65.05;100518.06;5079268;28;45413;-69
2022/09/17 02:32:11;;;;;;;;;6.67;5.67;;;;;16.66;65.52;100512.78;5079255;28;45525;-69
2022/09/17 02:34:38;;;;;;;;;5.67;5.33;;;;;16.59;65.55;100503.97;5079516;27;45643;-69
2022/09/17 02:37:05;;;;;;;;;7.33;6.67;;;;;16.50;65.69;100485.44;5079467;27;45397;-69
2022/09/17 02:39:30;;;;;;;;;5.00;5.00;;;;;16.44;66.47;100486.28;5079246;27;45463;-69
2022/09/17 02:42:35;;;;;;;;;5.33;5.00;;;;;16.41;65.96;100499.47;5079209;28;45269;-69
2022/09/17 02:45:26;;;;;;;;;6.00;5.00;;;;;16.35;65.64;100493.25;5078588;28;46364;-69
2022/09/17 02:48:20;;;;;;;;;7.00;6.00;;;;;16.29;65.22;100488.84;5077417;28;45248;-69
2022/09/17 02:50:45;;;;;;;;;7.00;5.00;;;;;16.33;65.38;100493.25;5078912;28;45428;-69
2022/09/17 02:54:01;;;;;;;;;6.00;6.00;;;;;16.27;66.22;100499.41;5079204;28;45483;-69
2022/09/17 02:57:02;;;;;;;;;7.00;7.00;;;;;16.17;66.75;100487.00;5077002;28;46543;-69
2022/09/17 02:59:40;;;;;;;;;8.67;7.33;;;;;16.11;67.13;100476.44;5077537;28;45396;-69
2022/09/17 03:02:42;;;;;;;;;6.00;6.00;;;;;16.25;66.48;100501.16;5079008;28;45515;-69
2022/09/17 03:05:11;;;;;;;;;6.00;5.33;;;;;16.24;66.85;100499.38;5079220;28;45533;-69
2022/09/17 03:07:37;;;;;;;;;6.67;6.00;;;;;16.28;66.44;100492.38;5078850;28;46301;-69
2022/09/17 03:10:04;;;;;;;;;8.00;7.00;;;;;16.21;66.79;100494.06;5078551;28;45329;-69
2022/09/17 03:12:30;;;;;;;;;7.67;7.00;;;;;16.25;66.72;100498.50;5078413;28;45550;-69
2022/09/17 03:14:56;;;;;;;;;8.00;6.00;;;;;16.18;65.66;100474.75;5078645;28;45533;-69
2022/09/17 03:17:22;;;;;;;;;5.33;4.67;;;;;16.21;64.75;100490.56;5078169;28;45955;-69
2022/09/17 03:19:47;;;;;;;;;6.00;4.67;;;;;16.20;64.88;100494.94;5078413;28;45479;-69
2022/09/17 03:22:13;;;;;;;;;6.00;6.00;;;;;16.13;64.32;100479.09;5078615;28;45579;-70
2022/09/17 03:24:38;;;;;;;;;6.00;6.00;;;;;16.10;64.24;100472.94;5079083;28;45216;-70
2022/09/17 03:27:04;;;;;;;;;5.67;3.00;;;;;16.11;64.22;100473.78;5078288;28;46458;-69
2022/09/17 03:29:29;;;;;;;;;7.33;7.00;;;;;16.14;65.22;100476.47;5078251;28;45508;-71
2022/09/17 03:31:55;;;;;;;;;6.33;6.00;;;;;16.19;65.84;100498.44;5076948;28;45307;-69
2022/09/17 03:34:20;;;;;;;;;7.33;7.33;;;;;16.13;66.03;100489.63;5078587;28;45484;-69
2022/09/17 03:36:46;;;;;;;;;5.00;5.00;;;;;16.16;66.20;100487.91;5075880;28;46421;-69
2022/09/17 03:39:12;;;;;;;;;11.33;9.00;;;;;15.87;66.41;100453.44;5078424;28;45438;-69
2022/09/17 03:41:38;;;;;;;;;7.00;7.00;;;;;16.13;66.74;100495.78;5078445;28;45513;-69
2022/09/17 03:44:04;;;;;;;;;8.00;7.33;;;;;16.11;66.93;100492.25;5078321;28;45391;-69
2022/09/17 03:46:29;;;;;;;;;10.00;9.00;;;;;16.00;66.68;100491.31;5077728;27;45447;-69
2022/09/17 03:48:55;;;;;;;;;7.00;7.00;;;;;15.91;66.83;100492.09;5078076;28;45479;-68
2022/09/17 03:51:20;;;;;;;;;8.00;8.00;;;;;15.89;66.97;100509.66;5077983;28;45493;-69
2022/09/17 03:53:46;;;;;;;;;8.33;7.33;;;;;15.71;67.29;100487.53;5078303;27;45494;-68
2022/09/17 03:56:11;;;;;;;;;11.00;9.00;;;;;15.65;67.49;100486.59;5076593;28;47194;-68
2022/09/17 03:58:37;;;;;;;;;8.67;8.00;;;;;15.43;67.27;100475.00;5077732;28;45587;-68
2022/09/17 04:01:03;;;;;;;;;10.33;9.00;;;;;15.57;67.58;100510.25;5077893;27;45535;-69
2022/09/17 04:03:30;;;;;;;;;11.00;9.33;;;;;15.51;67.41;100505.78;5078018;28;45291;-69
2022/09/17 04:05:55;;;;;;;;;9.00;8.00;;;;;15.36;67.34;100481.06;5077645;28;45474;-68
2022/09/17 04:08:21;;;;;;;;;9.33;7.67;;;;;15.40;66.51;100473.25;5077672;28;45500;-69
2022/09/17 04:10:47;;;;;;;;;8.67;7.67;;;;;15.57;66.64;100497.06;5077779;28;45591;-69
2022/09/17 04:13:15;;;;;;;;;7.33;7.00;;;;;15.43;66.22;100475.00;5078310;28;45348;-69
2022/09/17 04:15:41;;;;;;;;;7.67;7.67;;;;;15.54;66.08;100504.97;5077744;28;45616;-70
2022/09/17 04:18:07;;;;;;;;;8.33;7.33;;;;;15.55;66.21;100509.34;5077670;27;45407;-69
2022/09/17 04:20:33;;;;;;;;;7.67;7.67;;;;;15.50;66.26;100503.16;5077655;27;45482;-69
2022/09/17 04:22:58;;;;;;;;;11.67;10.33;;;;;15.61;66.38;100505.88;5077808;28;45218;-69
2022/09/17 04:25:24;;;;;;;;;10.00;8.75;;;;;15.43;66.69;100470.63;5077405;28;46121;-68
2022/09/17 04:27:50;;;;;;;;;9.75;9.00;;;;;15.52;66.79;100489.16;5077328;28;45266;-69
2022/09/17 04:30:16;;;;;;;;;10.67;8.00;;;;;15.55;67.08;100503.19;5077398;28;45451;-68
2022/09/17 04:32:43;;;;;;;;;6.67;6.00;;;;;15.56;68.18;100502.31;5077973;28;45455;-68
2022/09/17 04:35:08;;;;;;;;;6.67;6.33;;;;;15.40;69.22;100482.88;5075887;28;45419;-69
2022/09/17 04:37:34;;;;;;;;;8.00;6.00;;;;;15.47;69.55;100505.75;5077151;28;45263;-68
2022/09/17 04:40:00;;;;;;;;;7.00;7.00;;;;;15.45;70.25;100510.13;5077463;28;45294;-69
2022/09/17 04:42:25;;;;;;;;;6.00;5.33;;;;;15.37;70.52;100498.66;5077835;28;45533;-69
2022/09/17 04:44:51;;;;;;;;;6.67;6.67;;;;;15.40;70.25;100498.66;5077051;28;45614;-69
2022/09/17 04:47:16;;;;;;;;;7.00;6.00;;;;;15.42;69.96;100505.72;5078976;28;45397;-69
2022/09/17 04:49:42;;;;;;;;;8.00;6.33;;;;;15.45;70.37;100510.13;5081355;28;45313;-69
2022/09/17 04:52:07;;;;;;;;;10.00;8.00;;;;;15.41;70.12;100503.06;5080867;28;45483;-69
2022/09/17 04:54:33;;;;;;;;;8.67;8.00;;;;;15.44;69.78;100511.88;5080665;28;46412;-68
2022/09/17 04:56:59;;;;;;;;;7.00;6.67;;;;;15.41;70.26;100508.34;5080722;28;45254;-68
2022/09/17 04:59:24;;;;;;;;;9.00;9.00;;;;;15.44;70.33;100513.66;5080809;28;45243;-68
2022/09/17 05:01:50;;;;;;;;;8.67;7.00;;;;;15.46;70.81;100519.81;5080881;28;45361;-69
2022/09/17 05:04:16;;;;;;;;;5.33;5.33;;;;;15.49;70.45;100514.56;5081028;28;45471;-69
2022/09/17 05:06:41;;;;;;;;;7.00;6.33;;;;;15.43;70.61;100502.22;5079296;28;45344;-69
2022/09/17 05:09:07;;;;;;;;;7.00;7.00;;;;;15.52;68.30;100519.88;5080709;28;45524;-68
2022/09/17 05:11:33;;;;;;;;;5.67;5.33;;;;;15.42;69.64;100508.34;5080814;28;45523;-68
2022/09/17 05:13:58;;;;;;;;;6.00;6.00;;;;;15.53;69.98;100521.63;5080466;28;46395;-68
2022/09/17 05:16:24;;;;;;;;;7.00;7.00;;;;;15.52;70.89;100528.63;5080270;28;45344;-69
2022/09/17 05:18:50;;;;;;;;;6.67;6.00;;;;;15.35;70.72;100495.13;5080631;28;45428;-69
2022/09/17 05:21:16;;;;;;;;;8.67;6.00;;;;;15.54;70.52;100527.75;5080897;28;45312;-69
2022/09/17 05:23:42;;;;;;;;;7.00;6.00;;;;;15.56;70.41;100524.28;5080206;28;46017;-68
2022/09/17 05:26:08;;;;;;;;;7.00;7.00;;;;;15.67;69.84;100533.16;5079934;28;45539;-69
2022/09/17 05:28:33;;;;;;;;;6.00;5.33;;;;;15.62;70.11;100519.06;5080328;28;45599;-68
2022/09/17 05:31:00;;;;;;;;;7.67;7.00;;;;;15.71;70.32;100532.31;5080367;28;45509;-69
2022/09/17 05:33:25;;;;;;;;;6.67;6.00;;;;;15.75;70.21;100542.91;5080181;27;45623;-69
2022/09/17 05:35:51;;;;;;;;;6.67;6.67;;;;;15.54;70.16;100509.31;5080136;27;45290;-69
2022/09/17 05:38:17;;;;;;;;;8.00;7.33;;;;;15.67;70.08;100533.16;5080578;28;45215;-69
2022/09/17 05:40:44;;;;;;;;;7.33;6.67;;;;;15.67;70.31;100538.41;5080345;28;45242;-69
2022/09/17 05:43:10;;;;;;;;;8.00;7.67;;;;;15.62;70.41;100534.88;5079571;28;45507;-69
2022/09/17 05:45:36;;;;;;;;;6.00;5.00;;;;;15.65;70.55;100547.19;5079952;27;45495;-71
2022/09/17 05:48:06;;;;;;;;;6.00;6.00;;;;;15.52;70.30;100522.50;5080038;28;45523;-69
2022/09/17 05:50:32;;;;;;;;;7.00;6.00;;;;;15.65;70.18;100550.69;5080080;27;45257;-68
2022/09/17 05:53:06;;;;;;;;;7.67;7.00;;;;;15.61;70.30;100538.34;5079706;28;46545;-68
2022/09/17 05:55:33;;;;;;;;;6.00;5.00;;;;;15.69;69.93;100546.34;5079873;28;45421;-68
2022/09/17 05:57:59;;;;;;;;;8.00;7.33;;;;;15.51;69.71;100520.72;5079316;27;45385;-68
2022/09/17 06:00:25;;;;;;;;;7.33;7.00;;;;;15.56;70.21;100532.19;5079909;28;45445;-68
2022/09/17 06:02:56;;;;;;;;;6.33;6.00;;;;;15.62;70.12;100547.16;5079955;27;46134;-68
2022/09/17 06:05:21;;;;;;;;;7.00;6.00;;;;;15.65;70.61;100553.31;5079838;27;45180;-68
2022/09/17 06:07:47;;;;;;;;;7.00;7.00;;;;;15.47;70.75;100529.44;5079936;28;45259;-68
2022/09/17 06:10:12;;;;;;;;;5.00;4.67;;;;;15.63;70.09;100547.16;5078559;28;45312;-69
2022/09/17 06:12:38;;;;;;;;;7.00;5.00;;;;;15.62;69.98;100542.78;5079371;28;45575;-70
2022/09/17 06:15:04;;;;;;;;;9.33;9.33;;;;;15.74;69.70;100556.94;5079483;28;45318;-69
2022/09/17 06:17:34;;;;;;;;;7.33;6.00;;;;;15.81;69.66;100550.88;5078345;28;45738;-69
2022/09/17 06:19:59;;;;;;;;;5.00;5.00;;;;;15.89;69.80;100560.59;5079834;27;45543;-69
2022/09/17 06:22:25;;;;;;;;;6.00;6.00;;;;;16.00;69.11;100557.19;5079282;28;46089;-69
2022/09/17 06:24:50;;;;;;;;;3.00;2.67;;;;;15.94;68.62;100539.56;5079704;28;45487;-68
2022/09/17 06:27:16;;;;;;;;;7.33;7.00;;;;;16.14;68.59;100565.19;5079351;28;45209;-68
2022/09/17 06:29:41;;;;;;;;;8.00;7.00;;;;;16.25;67.95;100569.69;5079587;28;45451;-69
2022/09/17 06:32:09;;;;;;;;;7.00;6.67;;;;;16.33;68.04;100572.34;5078979;28;46216;-70
2022/09/17 06:34:35;;;;;;;;;9.00;7.00;;;;;16.30;67.45;100549.47;5079227;27;45518;-70
2022/09/17 06:37:01;;;;;;;;;7.67;7.00;;;;;16.38;67.37;100565.34;5079132;28;45721;-69
2022/09/17 06:39:26;;;;;;;;;7.33;5.67;;;;;16.35;67.27;100543.34;5079229;28;45286;-70
2022/09/17 06:41:52;;;;;;;;;7.00;7.00;;;;;16.45;67.25;100572.44;5079488;28;45495;-69
2022/09/17 06:44:17;;;;;;;;;6.33;6.33;;;;;16.40;67.15;100563.59;5094731;27;45486;-69
2022/09/17 06:46:43;;;;;;;;;7.67;7.33;;;;;16.46;66.81;100553.09;5077879;28;45505;-69
2022/09/17 06:49:08;;;;;;;;;9.00;8.00;;;;;16.18;66.22;100475.59;5079323;27;45321;-69
2022/09/17 06:51:34;;;;;;;;;7.67;7.67;;;;;16.81;65.83;100563.00;5078906;28;46135;-69
2022/09/17 06:54:00;;;;;;;;;8.67;6.33;;;;;17.30;65.61;100564.91;5078787;28;45495;-71
2022/09/17 06:56:25;;;;;;;;;8.67;8.00;;;;;20.39;58.66;100563.00;5077683;28;45268;-71
2022/09/17 06:58:52;;;;;;;;;8.00;6.67;;;;;22.80;52.24;100537.25;5079359;28;45436;-72
2022/09/17 07:01:18;;;;;;;;;9.33;7.00;;;;;24.73;46.01;100549.53;5078463;27;45624;-71
2022/09/17 07:03:43;;;;;;;;;6.33;6.33;;;;;26.38;42.49;100540.75;5078469;28;45528;-72
2022/09/17 07:06:10;;;;;;;;;7.00;6.00;;;;;27.56;40.05;100542.59;5077734;28;45524;-71
2022/09/17 07:08:36;;;;;;;;;7.00;7.00;;;;;28.70;37.06;100557.44;5078724;28;45215;-71
2022/09/17 07:11:02;;;;;;;;;5.00;5.00;;;;;29.51;36.55;100546.53;5077073;27;45598;-72
2022/09/17 07:13:28;;;;;;;;;6.00;5.33;;;;;29.96;36.43;100549.72;5078389;28;45350;-71
2022/09/17 07:15:54;;;;;;;;;4.33;4.33;;;;;30.22;33.10;100564.53;5079111;28;45311;-72
2022/09/17 07:18:20;;;;;;;;;10.33;10.33;;;;;30.52;31.99;100568.38;5079007;27;45388;-72
2022/09/17 07:20:52;;;;;;;;;6.33;6.00;;;;;31.09;31.56;100553.66;5077042;28;46366;-70
2022/09/17 07:23:18;;;;;;;;;7.33;7.00;;;;;31.65;29.78;100548.72;5078330;28;45469;-72
2022/09/17 07:25:43;;;;;;;;;8.00;8.00;;;;;32.29;29.27;100541.34;5078140;28;45538;-73
2022/09/17 07:28:09;;;;;;;;;6.33;6.33;;;;;32.81;30.27;100556.19;5077176;28;45497;-73
2022/09/17 07:30:34;;;;;;;;;8.33;8.00;;;;;33.01;27.52;100536.88;5077884;28;45421;-72
2022/09/17 07:33:01;;;;;;;;;7.00;7.00;;;;;33.20;28.56;100536.56;5078198;28;45270;-72
2022/09/17 07:35:26;;;;;;;;;6.33;6.33;;;;;34.05;28.23;100534.56;5078235;28;45819;-72
2022/09/17 07:37:52;;;;;;;;;7.00;6.00;;;;;34.77;25.33;100530.53;5078456;28;45515;-72
2022/09/17 07:40:18;;;;;;;;;8.67;7.67;;;;;35.31;24.65;100538.34;5077994;27;46261;-70
2022/09/17 07:42:43;;;;;;;;;6.67;6.67;;;;;35.50;24.25;100539.72;5078049;27;45482;-71
2022/09/17 07:45:09;;;;;;;;;7.67;6.67;;;;;35.70;25.02;100547.25;5077750;28;45319;-73
2022/09/17 07:47:40;;;;;;;;;6.33;6.00;;;;;36.07;24.47;100539.00;5078027;27;45455;-71
2022/09/17 07:50:07;;;;;;;;;7.33;7.33;;;;;36.31;23.43;100552.59;5077975;28;45548;-73
2022/09/17 07:52:32;;;;;;;;;9.67;9.67;;;;;36.50;23.50;100556.56;5077779;27;45416;-71
2022/09/17 07:54:58;;;;;;;;;8.67;7.33;;;;;36.78;23.52;100528.03;5077945;28;45244;-71
2022/09/17 07:57:23;;;;;;;;;7.67;7.00;;;;;37.26;22.53;100552.28;5076631;28;45445;-72
2022/09/17 07:59:49;;;;;;;;;8.00;7.33;;;;;37.19;22.60;100537.47;5077337;28;46394;-72
2022/09/17 08:02:14;;;;;;;;;6.33;5.67;;;;;37.73;23.40;100541.19;5077491;28;45309;-73
2022/09/17 08:04:43;;;;;;;;;7.67;7.33;;;;;38.55;22.62;100559.63;5077798;28;45386;-72
2022/09/17 08:07:12;;;;;;;;;7.33;6.67;;;;;39.15;20.29;100557.03;5077693;28;45508;-71
2022/09/17 08:09:38;;;;;;;;;6.67;6.33;;;;;39.32;19.98;100550.91;5077332;27;45521;-74
2022/09/17 08:12:04;;;;;;;;;7.00;6.00;;;;;39.30;20.47;100555.66;5077276;27;45444;-73
2022/09/17 08:14:29;;;;;;;;;6.67;6.00;;;;;39.34;19.91;100550.78;5077819;27;45559;-71
2022/09/17 08:16:55;;;;;;;;;6.00;5.67;;;;;39.48;20.92;100542.19;5078028;28;45395;-72
2022/09/17 08:19:21;;;;;;;;;7.00;7.00;;;;;40.09;18.96;100557.50;5077486;27;46614;-73
2022/09/17 08:21:46;;;;;;;;;6.67;5.67;;;;;39.98;18.31;100552.19;5076946;28;45558;-72
2022/09/17 08:24:12;;;;;;;;;3.67;3.67;;;;;39.76;19.83;100567.84;5077558;28;45421;-72
2022/09/17 08:26:39;;;;;;;;;3.67;3.00;;;;;40.20;19.02;100552.88;5077544;28;45477;-71
2022/09/17 08:29:06;;;;;;;;;6.00;6.00;;;;;40.09;18.58;100559.38;5077135;28;45515;-71
2022/09/17 08:31:32;;;;;;;;;5.33;5.33;;;;;39.81;18.72;100550.13;5076745;28;45923;-73
2022/09/17 08:33:59;;;;;;;;;15.00;13.67;;;;;39.93;19.06;100558.09;5077235;28;45420;-72
2022/09/17 08:36:25;;;;;;;;;6.00;5.33;;;;;40.14;18.61;100559.81;5077507;28;45508;-71
2022/09/17 08:38:54;;;;;;;;;4.67;4.67;;;;;40.19;18.40;100542.94;5077148;28;45669;-71
2022/09/17 08:41:44;;;;;;;;;4.67;4.00;;;;;40.36;18.53;100553.16;5077137;28;45444;-72
2022/09/17 08:44:20;;;;;;;;;4.00;4.00;;;;;40.59;18.00;100574.72;5077172;27;45438;-73
2022/09/17 08:47:24;;;;;;;;;3.33;3.33;;;;;39.72;17.76;100569.13;5077264;28;45473;-72
2022/09/17 08:49:58;;;;;;;;;2.67;2.67;;;;;39.05;19.36;100564.34;5076746;28;45420;-72
2022/09/17 08:52:42;;;;;;;;;3.67;3.67;;;;;39.17;18.88;100571.44;5075375;28;45526;-72
2022/09/17 08:55:28;;;;;;;;;4.00;4.00;;;;;39.12;20.49;100566.41;5076824;27;45574;-71
2022/09/17 08:58:14;;;;;;;;;4.33;3.67;;;;;38.90;19.91;100582.94;5077007;28;45419;-73
2022/09/17 09:01:00;;;;;;;;;4.00;4.00;;;;;38.14;19.90;100577.69;5076587;28;45325;-71
2022/09/17 09:03:44;;;;;;;;;3.00;3.00;;;;;37.59;20.31;100577.78;5092436;27;45441;-72
2022/09/17 09:06:12;;;;;;;;;4.00;3.00;;;;;36.78;21.33;100560.72;5076831;28;45396;-71
2022/09/17 09:08:49;;;;;;;;;5.33;4.67;;;;;35.96;21.94;100566.16;5076948;28;45239;-72
2022/09/17 09:11:21;;;;;;;;;4.00;3.67;;;;;35.48;22.74;100569.72;5076279;28;45477;-71
2022/09/17 09:13:51;;;;;;;;;4.00;3.33;;;;;35.02;23.25;100568.50;5076345;28;45318;-73
2022/09/17 09:16:20;;;;;;;;;3.67;3.67;;;;;34.59;23.60;100576.94;5076689;28;45384;-71
2022/09/17 09:18:50;;;;;;;;;4.33;3.67;;;;;34.19;24.40;100584.28;5076612;28;45417;-71
2022/09/17 09:21:35;;;;;;;;;1.67;1.67;;;;;33.71;25.01;100576.63;5076267;28;45506;-70
2022/09/17 09:24:24;;;;;;;;;5.00;4.67;;;;;33.52;25.42;100570.66;5076247;28;45325;-71
2022/09/17 09:26:55;;;;;;;;;4.00;4.00;;;;;33.53;24.80;100586.78;5076781;27;45358;-72
2022/09/17 09:29:45;;;;;;;;;5.00;5.00;;;;;33.25;24.42;100583.19;5076468;28;45398;-73
2022/09/17 09:32:34;;;;;;;;;2.00;1.67;;;;;32.67;25.13;100578.72;5075524;28;45492;-71
2022/09/17 09:35:11;;;;;;;;;3.67;3.67;;;;;32.39;25.79;100515.50;5079032;28;45260;-72
2022/09/17 09:37:42;;;;;;;;;2.67;2.00;;;;;32.87;25.06;100566.66;5079666;27;45534;-72
2022/09/17 09:40:42;;;;;;;;;3.00;2.67;;;;;32.88;25.47;100562.97;5079648;27;45412;-72
2022/09/17 09:43:17;;;;;;;;;5.00;3.67;;;;;32.77;25.44;100574.47;5056035;28;46237;-71
2022/09/17 09:46:01;;;;;;;;;4.67;4.00;;;;;33.18;25.54;100573.69;5076312;28;45987;-72
2022/09/17 09:48:52;;;;;;;;;3.67;2.67;;;;;33.43;24.50;100564.88;5079378;28;46144;-71
2022/09/17 09:51:42;;;;;;;;;3.33;3.33;;;;;33.38;24.66;100560.72;5079465;27;45528;-72
2022/09/17 09:54:20;;;;;;;;;3.67;2.67;;;;;33.20;23.54;100566.34;5079408;27;46108;-72
2022/09/17 09:56:54;;;;;;;;;3.67;2.67;;;;;33.23;23.74;100563.47;5079455;28;45477;-71
2022/09/17 09:59:19;;;;;;;;;3.67;3.67;;;;;33.08;23.86;100559.00;5079253;28;45536;-71
2022/09/17 10:01:45;;;;;;;;;2.00;2.00;;;;;32.65;24.80;100559.88;5079621;28;45497;-71
2022/09/17 10:04:24;;;;;;;;;2.00;2.00;;;;;32.27;25.40;100564.88;5079070;28;46399;-70
2022/09/17 10:07:01;;;;;;;;;3.00;3.00;;;;;31.67;24.96;100561.16;5079441;28;45366;-72
2022/09/17 10:09:31;;;;;;;;;3.00;2.33;;;;;31.17;26.63;100548.69;5079196;27;45241;-71
2022/09/17 10:12:01;;;;;;;;;3.33;3.33;;;;;31.02;26.74;100538.75;5078653;28;45518;-71
2022/09/17 10:14:32;;;;;;;;;3.00;3.00;;;;;31.32;26.20;100545.13;5078642;27;45582;-71
2022/09/17 10:17:13;;;;;;;;;5.00;4.00;;;;;31.40;26.43;100566.31;5078458;28;45332;-71
2022/09/17 10:19:39;;;;;;;;;4.67;4.00;;;;;31.58;26.66;100547.34;5079055;28;45457;-70
2022/09/17 10:22:18;;;;;;;;;3.33;2.67;;;;;31.68;25.62;100565.63;5078978;28;45338;-71
2022/09/17 10:24:45;;;;;;;;;3.00;2.00;;;;;30.75;25.72;100531.19;5078473;27;45349;-71
2022/09/17 10:27:17;;;;;;;;;3.67;3.67;;;;;30.49;27.78;100532.63;5077326;28;45295;-71
2022/09/17 10:30:14;;;;;;;;;5.33;4.00;;;;;30.51;27.46;100558.53;5078921;27;45340;-71
2022/09/17 10:32:39;;;;;;;;;3.00;3.00;;;;;29.75;27.36;100560.63;5074029;28;45393;-71
2022/09/17 10:35:27;;;;;;;;;2.33;2.33;;;;;28.66;27.65;100561.22;5078894;28;46060;-70
2022/09/17 10:37:53;;;;;;;;;3.00;2.33;;;;;28.27;29.08;100528.88;5078406;27;45177;-70
2022/09/17 10:40:18;;;;;;;;;4.00;4.00;;;;;28.43;29.74;100548.78;5077332;28;45246;-70
2022/09/17 10:42:49;;;;;;;;;5.00;4.00;;;;;28.26;29.74;100559.38;5079160;28;45432;-71
2022/09/17 10:45:39;;;;;;;;;1.00;1.00;;;;;26.60;29.93;100561.44;5078022;28;46373;-71
2022/09/17 10:48:16;;;;;;;;;2.00;2.00;;;;;26.04;32.23;100559.75;5094349;27;45407;-70
2022/09/17 10:50:54;;;;;;;;;2.00;1.00;;;;;25.54;31.79;100551.56;5078108;28;45416;-70
2022/09/17 10:53:24;;;;;;;;;3.00;3.00;;;;;25.34;32.79;100538.84;5078312;28;45486;-70
2022/09/17 10:55:58;;;;;;;;;3.00;2.00;;;;;25.36;33.09;100553.03;5076810;28;46950;-70
2022/09/17 10:58:55;;;;;;;;;1.33;1.33;;;;;25.24;32.92;100553.41;5077057;28;45362;-70
2022/09/17 11:01:39;;;;;;;;;4.33;2.67;;;;;25.37;33.91;100546.78;5094364;27;45364;-70
2022/09/17 11:04:14;;;;;;;;;3.67;3.00;;;;;25.10;33.44;100524.41;5078627;28;45258;-71
2022/09/17 11:06:40;;;;;;;;;3.00;3.00;;;;;24.80;33.63;100543.97;5078443;28;46295;-70
2022/09/17 11:09:36;;;;;;;;;4.67;3.67;;;;;25.01;34.04;100536.25;5078647;28;45484;-70
2022/09/17 11:12:23;;;;;;;;;3.33;3.33;;;;;24.91;34.15;100526.75;5078612;27;45514;-70
2022/09/17 11:15:08;;;;;;;;;2.00;2.00;;;;;24.61;34.54;100521.38;5078856;28;45496;-70
2022/09/17 11:18:00;;;;;;;;;5.00;2.00;;;;;24.26;34.66;100544.56;5078374;28;46279;-70
2022/09/17 11:20:44;;;;;;;;;3.00;3.00;;;;;23.92;35.68;100544.56;5078074;28;45513;-70
2022/09/17 11:23:34;;;;;;;;;4.00;3.00;;;;;23.69;36.70;100543.28;5078174;27;45331;-70
2022/09/17 11:26:31;;;;;;;;;3.00;2.00;;;;;23.63;36.50;100541.66;5077961;27;45383;-70
2022/09/17 11:29:10;;;;;;;;;6.00;5.00;;;;;23.77;36.68;100533.34;5077627;28;45298;-70
2022/09/17 11:32:02;;;;;;;;;3.00;2.67;;;;;23.19;36.79;100450.28;5078151;28;45377;-71
2022/09/17 11:34:46;;;;;;;;;4.00;3.00;;;;;23.74;36.98;100527.19;5057513;28;45462;-70
2022/09/17 11:37:22;;;;;;;;;3.33;3.00;;;;;23.83;36.22;100521.63;5077995;28;45543;-70
2022/09/17 11:40:02;;;;;;;;;1.00;1.00;;;;;23.59;36.03;100526.63;5093521;27;46913;-71
2022/09/17 11:42:35;;;;;;;;;0.00;0.00;;;;;23.20;36.87;100508.00;5077574;27;45389;-73
2022/09/17 11:45:10;;;;;;;;;2.33;2.33;;;;;23.58;37.05;100516.91;5077710;28;45494;-72
2022/09/17 11:47:45;;;;;;;;;3.00;3.00;;;;;23.95;36.86;100505.31;5078326;28;45442;-72